createdAt,value
2018-07-20T00:00:30.699Z,0.00
2018-07-20T00:01:30.726Z,0.00
2018-07-20T00:02:51.767Z,0.00
2018-07-20T00:03:30.773Z,0.00
2018-07-20T00:04:30.798Z,0.00
2018-07-20T00:05:30.823Z,0.00
2018-07-20T00:06:30.846Z,0.00
2018-07-20T00:07:30.870Z,0.00
2018-07-20T00:08:51.914Z,0.00
2018-07-20T00:09:30.924Z,0.00
2018-07-20T00:10:30.945Z,0.00
2018-07-20T00:11:30.975Z,0.00
2018-07-20T00:12:30.992Z,0.00
2018-07-20T00:13:31.018Z,0.00
2018-07-20T00:14:52.059Z,0.00
2018-07-20T00:15:31.065Z,0.00
2018-07-20T00:16:31.094Z,0.00
2018-07-20T00:17:31.117Z,0.00
2018-07-20T00:18:31.141Z,0.00
2018-07-20T00:19:31.165Z,0.00
2018-07-20T00:20:52.208Z,0.00
2018-07-20T00:21:31.216Z,0.00
2018-07-20T00:22:31.239Z,0.00
2018-07-20T00:23:31.263Z,0.00
2018-07-20T00:24:31.300Z,0.00
2018-07-20T00:25:31.310Z,0.00
2018-07-20T00:26:52.353Z,0.00
2018-07-20T00:27:31.359Z,0.00
2018-07-20T00:28:31.383Z,0.00
2018-07-20T00:29:31.409Z,0.00
2018-07-20T00:30:31.435Z,0.00
2018-07-20T00:31:31.458Z,0.00
2018-07-20T00:32:52.496Z,0.00
2018-07-20T00:33:31.505Z,0.00
2018-07-20T00:34:31.529Z,0.00
2018-07-20T00:35:31.551Z,0.00
2018-07-20T00:36:31.577Z,0.00
2018-07-20T00:37:31.602Z,0.00
2018-07-20T00:38:52.643Z,0.00
2018-07-20T00:39:31.651Z,0.00
2018-07-20T00:40:31.677Z,0.00
2018-07-20T00:41:31.702Z,0.00
2018-07-20T00:42:31.726Z,0.00
2018-07-20T00:43:31.751Z,0.00
2018-07-20T00:44:52.788Z,0.00
2018-07-20T00:45:31.796Z,0.00
2018-07-20T00:46:31.821Z,0.00
2018-07-20T00:47:31.844Z,0.00
2018-07-20T00:48:31.871Z,0.00
2018-07-20T00:49:31.898Z,0.00
2018-07-20T00:50:52.938Z,0.00
2018-07-20T00:51:31.951Z,0.00
2018-07-20T00:52:31.968Z,0.00
2018-07-20T00:53:31.993Z,0.00
2018-07-20T00:54:32.023Z,0.00
2018-07-20T00:55:32.040Z,0.00
2018-07-20T00:56:53.081Z,0.00
2018-07-20T00:57:32.090Z,0.00
2018-07-20T00:58:32.119Z,0.00
2018-07-20T00:59:32.138Z,0.00
2018-07-20T01:00:32.163Z,0.00
2018-07-20T01:01:32.191Z,0.00
2018-07-20T01:02:53.234Z,0.00
2018-07-20T01:03:32.236Z,0.00
2018-07-20T01:04:32.266Z,0.00
2018-07-20T01:05:32.308Z,0.00
2018-07-20T01:06:32.308Z,0.00
2018-07-20T01:07:32.341Z,0.00
2018-07-20T01:08:53.375Z,0.00
2018-07-20T01:09:32.385Z,0.00
2018-07-20T01:10:32.408Z,0.00
2018-07-20T01:11:32.430Z,0.00
2018-07-20T01:12:32.453Z,0.00
2018-07-20T01:13:32.479Z,0.00
2018-07-20T01:14:53.522Z,0.00
2018-07-20T01:15:32.530Z,0.00
2018-07-20T01:16:32.562Z,0.00
2018-07-20T01:17:32.580Z,0.00
2018-07-20T01:18:32.601Z,0.00
2018-07-20T01:19:32.628Z,0.00
2018-07-20T01:20:53.668Z,0.00
2018-07-20T01:21:32.671Z,0.00
2018-07-20T01:22:32.699Z,0.00
2018-07-20T01:23:32.721Z,0.00
2018-07-20T01:24:32.744Z,0.00
2018-07-20T01:25:32.769Z,0.00
2018-07-20T01:26:53.810Z,0.00
2018-07-20T01:27:32.816Z,0.00
2018-07-20T01:28:32.843Z,0.00
2018-07-20T01:29:32.867Z,0.00
2018-07-20T01:30:32.894Z,0.00
2018-07-20T01:31:32.915Z,0.00
2018-07-20T01:32:53.955Z,0.00
2018-07-20T01:33:32.964Z,0.00
2018-07-20T01:34:32.986Z,0.00
2018-07-20T01:35:33.011Z,0.00
2018-07-20T01:36:33.039Z,0.00
2018-07-20T01:37:33.061Z,0.00
2018-07-20T01:38:54.102Z,0.00
2018-07-20T01:39:33.110Z,0.00
2018-07-20T01:40:33.135Z,0.00
2018-07-20T01:41:33.159Z,0.00
2018-07-20T01:42:33.183Z,0.00
2018-07-20T01:43:33.207Z,0.00
2018-07-20T01:44:54.246Z,0.00
2018-07-20T01:45:33.255Z,0.00
2018-07-20T01:46:33.279Z,0.00
2018-07-20T01:47:33.303Z,0.00
2018-07-20T01:48:33.329Z,0.00
2018-07-20T01:49:33.353Z,0.00
2018-07-20T01:50:54.393Z,0.00
2018-07-20T01:51:33.403Z,0.00
2018-07-20T01:52:33.423Z,0.00
2018-07-20T01:53:33.452Z,0.00
2018-07-20T01:54:33.472Z,0.00
2018-07-20T01:55:33.496Z,0.00
2018-07-20T01:56:54.535Z,0.00
2018-07-20T01:57:33.545Z,0.00
2018-07-20T01:58:33.571Z,0.00
2018-07-20T01:59:33.594Z,0.00
2018-07-20T02:00:33.619Z,0.00
2018-07-20T02:01:33.643Z,0.00
2018-07-20T02:02:54.688Z,0.00
2018-07-20T02:03:33.691Z,0.00
2018-07-20T02:04:33.714Z,0.00
2018-07-20T02:05:33.738Z,0.00
2018-07-20T02:06:33.763Z,0.00
2018-07-20T02:07:33.787Z,0.00
2018-07-20T02:08:54.830Z,0.00
2018-07-20T02:09:33.838Z,0.00
2018-07-20T02:10:33.863Z,0.00
2018-07-20T02:11:33.885Z,0.00
2018-07-20T02:12:33.908Z,0.00
2018-07-20T02:13:33.938Z,0.00
2018-07-20T02:14:54.974Z,0.00
2018-07-20T02:15:33.981Z,0.00
2018-07-20T02:16:34.007Z,0.00
2018-07-20T02:17:34.032Z,0.00
2018-07-20T02:18:34.055Z,0.00
2018-07-20T02:19:34.079Z,0.00
2018-07-20T02:20:55.119Z,0.00
2018-07-20T02:21:34.215Z,0.00
2018-07-20T02:22:34.152Z,0.00
2018-07-20T02:23:34.175Z,0.00
2018-07-20T02:24:34.202Z,0.00
2018-07-20T02:25:34.225Z,0.00
2018-07-20T02:26:55.267Z,0.00
2018-07-20T02:27:34.276Z,0.00
2018-07-20T02:28:34.298Z,0.00
2018-07-20T02:29:34.355Z,0.00
2018-07-20T02:30:34.346Z,0.00
2018-07-20T02:31:34.371Z,0.00
2018-07-20T02:32:55.409Z,0.00
2018-07-20T02:33:34.419Z,0.00
2018-07-20T02:34:34.452Z,0.00
2018-07-20T02:35:34.468Z,0.00
2018-07-20T02:36:34.491Z,0.00
2018-07-20T02:37:34.516Z,0.00
2018-07-20T02:38:55.557Z,0.00
2018-07-20T02:39:34.563Z,0.00
2018-07-20T02:40:34.587Z,0.00
2018-07-20T02:41:34.614Z,0.00
2018-07-20T02:42:34.637Z,0.00
2018-07-20T02:43:34.658Z,0.00
2018-07-20T02:44:55.699Z,0.00
2018-07-20T02:45:34.707Z,0.00
2018-07-20T02:46:34.732Z,0.00
2018-07-20T02:47:34.754Z,0.00
2018-07-20T02:48:34.781Z,0.00
2018-07-20T02:49:34.807Z,0.00
2018-07-20T02:50:55.847Z,0.00
2018-07-20T02:51:34.854Z,0.00
2018-07-20T02:52:34.876Z,0.00
2018-07-20T02:53:34.903Z,0.00
2018-07-20T02:54:34.925Z,0.00
2018-07-20T02:55:34.948Z,0.00
2018-07-20T02:56:55.991Z,0.00
2018-07-20T02:57:34.998Z,0.00
2018-07-20T02:58:35.022Z,0.00
2018-07-20T02:59:35.049Z,0.00
2018-07-20T03:00:35.073Z,0.00
2018-07-20T03:01:35.099Z,0.00
2018-07-20T03:02:56.137Z,0.00
2018-07-20T03:03:35.144Z,0.00
2018-07-20T03:04:35.168Z,0.00
2018-07-20T03:05:35.192Z,0.00
2018-07-20T03:06:35.216Z,0.00
2018-07-20T03:07:35.238Z,0.00
2018-07-20T03:08:56.322Z,0.00
2018-07-20T03:09:35.291Z,0.00
2018-07-20T03:10:35.315Z,0.00
2018-07-20T03:11:35.338Z,0.00
2018-07-20T03:12:35.361Z,0.00
2018-07-20T03:13:35.385Z,0.00
2018-07-20T03:14:56.428Z,0.00
2018-07-20T03:15:35.433Z,0.00
2018-07-20T03:16:35.460Z,0.00
2018-07-20T03:17:35.485Z,0.00
2018-07-20T03:18:35.507Z,0.00
2018-07-20T03:19:35.530Z,0.00
2018-07-20T03:20:56.621Z,0.00
2018-07-20T03:21:35.581Z,0.00
2018-07-20T03:22:35.602Z,0.00
2018-07-20T03:23:35.625Z,0.00
2018-07-20T03:24:35.651Z,0.00
2018-07-20T03:25:35.677Z,0.00
2018-07-20T03:26:56.716Z,0.00
2018-07-20T03:27:35.723Z,0.00
2018-07-20T03:28:35.749Z,0.00
2018-07-20T03:29:35.770Z,0.00
2018-07-20T03:30:35.818Z,0.00
2018-07-20T03:31:35.820Z,0.00
2018-07-20T03:32:56.951Z,0.00
2018-07-20T03:33:35.867Z,0.00
2018-07-20T03:34:35.891Z,0.00
2018-07-20T03:35:35.915Z,0.00
2018-07-20T03:36:35.945Z,0.00
2018-07-20T03:37:35.966Z,0.00
2018-07-20T03:38:57.006Z,0.00
2018-07-20T03:39:36.016Z,0.00
2018-07-20T03:40:36.034Z,0.00
2018-07-20T03:41:36.059Z,0.00
2018-07-20T03:42:36.083Z,0.00
2018-07-20T03:43:36.106Z,0.00
2018-07-20T03:44:57.151Z,0.00
2018-07-20T03:45:36.157Z,0.00
2018-07-20T03:46:36.241Z,0.00
2018-07-20T03:47:36.209Z,0.00
2018-07-20T03:48:36.229Z,0.00
2018-07-20T03:49:36.253Z,0.00
2018-07-20T03:50:57.294Z,0.00
2018-07-20T03:51:36.301Z,0.00
2018-07-20T03:52:36.324Z,0.00
2018-07-20T03:53:36.348Z,5.63
2018-07-20T03:54:36.372Z,5.63
2018-07-20T03:55:36.401Z,5.63
2018-07-20T03:56:57.439Z,5.63
2018-07-20T03:57:36.452Z,5.63
2018-07-20T03:58:36.471Z,5.63
2018-07-20T03:59:36.493Z,5.63
2018-07-20T04:00:36.524Z,5.63
2018-07-20T04:01:36.542Z,5.63
2018-07-20T04:02:57.581Z,5.63
2018-07-20T04:03:36.589Z,5.63
2018-07-20T04:04:36.612Z,5.63
2018-07-20T04:05:36.636Z,5.63
2018-07-20T04:06:36.661Z,5.63
2018-07-20T04:07:36.685Z,5.63
2018-07-20T04:08:57.728Z,5.63
2018-07-20T04:09:36.736Z,5.63
2018-07-20T04:10:36.759Z,5.63
2018-07-20T04:11:36.783Z,5.63
2018-07-20T04:12:36.804Z,5.63
2018-07-20T04:13:36.830Z,5.63
2018-07-20T04:14:57.870Z,5.63
2018-07-20T04:15:36.877Z,5.63
2018-07-20T04:16:36.903Z,5.63
2018-07-20T04:17:36.927Z,5.63
2018-07-20T04:18:36.954Z,5.63
2018-07-20T04:19:36.980Z,5.63
2018-07-20T04:20:58.015Z,11.25
2018-07-20T04:21:37.025Z,11.25
2018-07-20T04:22:37.054Z,11.25
2018-07-20T04:23:37.070Z,11.25
2018-07-20T04:24:37.099Z,11.25
2018-07-20T04:25:37.117Z,16.88
2018-07-20T04:26:58.157Z,16.88
2018-07-20T04:27:37.166Z,16.88
2018-07-20T04:28:37.191Z,16.88
2018-07-20T04:29:37.214Z,16.88
2018-07-20T04:30:37.242Z,16.88
2018-07-20T04:31:37.265Z,16.88
2018-07-20T04:32:58.301Z,16.88
2018-07-20T04:33:37.309Z,16.88
2018-07-20T04:34:37.333Z,16.88
2018-07-20T04:35:37.358Z,16.88
2018-07-20T04:36:37.386Z,16.88
2018-07-20T04:37:37.408Z,16.88
2018-07-20T04:38:58.445Z,16.88
2018-07-20T04:39:37.452Z,16.88
2018-07-20T04:40:37.480Z,16.88
2018-07-20T04:41:37.504Z,16.88
2018-07-20T04:42:37.528Z,16.88
2018-07-20T04:43:37.554Z,16.88
2018-07-20T04:44:58.591Z,16.88
2018-07-20T04:45:37.598Z,16.88
2018-07-20T04:46:37.624Z,22.50
2018-07-20T04:47:37.645Z,22.50
2018-07-20T04:48:37.672Z,22.50
2018-07-20T04:49:37.696Z,22.50
2018-07-20T04:50:58.737Z,22.50
2018-07-20T04:51:37.744Z,22.50
2018-07-20T04:52:37.768Z,22.50
2018-07-20T04:53:37.792Z,22.50
2018-07-20T04:54:37.816Z,22.50
2018-07-20T04:55:37.840Z,22.50
2018-07-20T04:56:58.878Z,22.50
2018-07-20T04:57:37.887Z,22.50
2018-07-20T04:58:37.912Z,28.13
2018-07-20T04:59:37.939Z,28.13
2018-07-20T05:00:37.960Z,28.13
2018-07-20T05:01:37.989Z,28.13
2018-07-20T05:02:59.025Z,28.13
2018-07-20T05:03:38.037Z,28.13
2018-07-20T05:04:38.055Z,28.13
2018-07-20T05:05:38.080Z,28.13
2018-07-20T05:06:38.104Z,28.13
2018-07-20T05:07:38.128Z,28.13
2018-07-20T05:08:59.167Z,28.13
2018-07-20T05:09:38.175Z,28.13
2018-07-20T05:10:38.200Z,28.13
2018-07-20T05:11:38.230Z,28.13
2018-07-20T05:12:38.248Z,28.13
2018-07-20T05:13:38.284Z,28.13
2018-07-20T05:14:59.315Z,28.13
2018-07-20T05:15:38.321Z,33.75
2018-07-20T05:16:38.348Z,33.75
2018-07-20T05:17:38.371Z,33.75
2018-07-20T05:18:38.392Z,33.75
2018-07-20T05:19:38.418Z,33.75
2018-07-20T05:20:59.459Z,33.75
2018-07-20T05:21:38.469Z,33.75
2018-07-20T05:22:38.492Z,33.75
2018-07-20T05:23:38.512Z,33.75
2018-07-20T05:24:38.536Z,33.75
2018-07-20T05:25:38.562Z,33.75
2018-07-20T05:26:59.608Z,33.75
2018-07-20T05:27:38.611Z,33.75
2018-07-20T05:28:38.636Z,33.75
2018-07-20T05:29:38.662Z,33.75
2018-07-20T05:30:38.686Z,33.75
2018-07-20T05:31:38.721Z,33.75
2018-07-20T05:32:59.747Z,33.75
2018-07-20T05:33:38.755Z,33.75
2018-07-20T05:34:38.780Z,33.75
2018-07-20T05:35:38.805Z,33.75
2018-07-20T05:36:38.829Z,33.75
2018-07-20T05:37:38.854Z,33.75
2018-07-20T05:38:59.908Z,33.75
2018-07-20T05:39:38.901Z,39.38
2018-07-20T05:40:38.927Z,39.38
2018-07-20T05:41:38.950Z,45.00
2018-07-20T05:42:38.981Z,45.00
2018-07-20T05:43:39.001Z,45.00
2018-07-20T05:45:00.053Z,45.00
2018-07-20T05:45:39.046Z,45.00
2018-07-20T05:46:39.071Z,45.00
2018-07-20T05:47:39.100Z,45.00
2018-07-20T05:48:39.125Z,45.00
2018-07-20T05:49:39.144Z,45.00
2018-07-20T05:51:00.185Z,45.00
2018-07-20T05:51:39.192Z,45.00
2018-07-20T05:52:39.215Z,50.63
2018-07-20T05:53:39.241Z,56.25
2018-07-20T05:54:39.268Z,56.25
2018-07-20T05:55:39.294Z,56.25
2018-07-20T05:57:00.328Z,56.25
2018-07-20T05:57:39.336Z,56.25
2018-07-20T05:58:39.361Z,56.25
2018-07-20T05:59:39.390Z,50.63
2018-07-20T06:00:39.411Z,56.25
2018-07-20T06:01:39.436Z,56.25
2018-07-20T06:03:00.479Z,61.88
2018-07-20T06:03:39.481Z,56.25
2018-07-20T06:04:39.506Z,56.25
2018-07-20T06:05:39.572Z,56.25
2018-07-20T06:06:39.557Z,56.25
2018-07-20T06:07:39.584Z,61.88
2018-07-20T06:09:00.622Z,61.88
2018-07-20T06:09:39.638Z,61.88
2018-07-20T06:10:39.655Z,67.50
2018-07-20T06:11:39.684Z,67.50
2018-07-20T06:12:39.705Z,67.50
2018-07-20T06:13:39.729Z,67.50
2018-07-20T06:15:00.768Z,67.50
2018-07-20T06:15:39.775Z,67.50
2018-07-20T06:16:39.801Z,73.13
2018-07-20T06:17:39.823Z,73.13
2018-07-20T06:18:39.845Z,78.75
2018-07-20T06:19:39.876Z,78.75
2018-07-20T06:21:00.916Z,78.75
2018-07-20T06:21:39.922Z,78.75
2018-07-20T06:22:39.969Z,78.75
2018-07-20T06:23:39.974Z,78.75
2018-07-20T06:24:39.994Z,78.75
2018-07-20T06:25:40.020Z,78.75
2018-07-20T06:27:01.060Z,84.38
2018-07-20T06:27:40.067Z,101.25
2018-07-20T06:28:40.093Z,95.63
2018-07-20T06:29:40.159Z,118.13
2018-07-20T06:30:40.143Z,101.25
2018-07-20T06:31:40.168Z,95.63
2018-07-20T06:33:01.208Z,95.63
2018-07-20T06:33:40.219Z,101.25
2018-07-20T06:34:40.240Z,101.25
2018-07-20T06:35:40.265Z,112.50
2018-07-20T06:36:40.286Z,106.88
2018-07-20T06:37:40.309Z,118.13
2018-07-20T06:39:01.359Z,118.13
2018-07-20T06:39:40.363Z,123.75
2018-07-20T06:40:40.440Z,129.38
2018-07-20T06:41:40.449Z,135.00
2018-07-20T06:42:40.449Z,140.63
2018-07-20T06:43:40.522Z,140.63
2018-07-20T06:45:01.511Z,146.25
2018-07-20T06:45:40.514Z,146.25
2018-07-20T06:46:40.538Z,157.50
2018-07-20T06:47:40.557Z,157.50
2018-07-20T06:48:40.584Z,168.75
2018-07-20T06:49:40.608Z,168.75
2018-07-20T06:51:01.650Z,168.75
2018-07-20T06:51:40.659Z,163.13
2018-07-20T06:52:40.684Z,157.50
2018-07-20T06:53:40.710Z,163.13
2018-07-20T06:54:40.734Z,168.75
2018-07-20T06:55:40.762Z,168.75
2018-07-20T06:57:01.800Z,180.00
2018-07-20T06:57:40.805Z,185.63
2018-07-20T06:58:40.834Z,191.25
2018-07-20T06:59:40.860Z,191.25
2018-07-20T07:00:40.886Z,196.88
2018-07-20T07:01:40.907Z,202.50
2018-07-20T07:03:02.006Z,202.50
2018-07-20T07:03:40.960Z,208.13
2018-07-20T07:04:40.985Z,208.13
2018-07-20T07:05:41.009Z,213.75
2018-07-20T07:06:41.035Z,213.75
2018-07-20T07:07:41.073Z,213.75
2018-07-20T07:09:02.100Z,219.38
2018-07-20T07:09:41.111Z,219.38
2018-07-20T07:10:41.134Z,219.38
2018-07-20T07:11:41.171Z,219.38
2018-07-20T07:12:41.188Z,219.38
2018-07-20T07:13:41.216Z,219.38
2018-07-20T07:15:02.263Z,225.00
2018-07-20T07:15:41.263Z,225.00
2018-07-20T07:16:41.291Z,225.00
2018-07-20T07:17:41.320Z,225.00
2018-07-20T07:18:41.351Z,225.00
2018-07-20T07:19:41.376Z,225.00
2018-07-20T07:21:02.405Z,225.00
2018-07-20T07:21:41.412Z,219.38
2018-07-20T07:22:41.449Z,219.38
2018-07-20T07:23:41.538Z,219.38
2018-07-20T07:24:41.491Z,219.38
2018-07-20T07:25:41.527Z,213.75
2018-07-20T07:27:02.562Z,213.75
2018-07-20T07:27:41.568Z,208.13
2018-07-20T07:28:41.599Z,208.13
2018-07-20T07:29:41.619Z,208.13
2018-07-20T07:30:41.645Z,208.13
2018-07-20T07:31:41.671Z,213.75
2018-07-20T07:33:02.720Z,213.75
2018-07-20T07:33:41.727Z,202.50
2018-07-20T07:34:41.759Z,202.50
2018-07-20T07:35:41.814Z,213.75
2018-07-20T07:36:41.798Z,213.75
2018-07-20T07:37:41.851Z,213.75
2018-07-20T07:39:02.868Z,213.75
2018-07-20T07:39:41.891Z,213.75
2018-07-20T07:40:41.925Z,213.75
2018-07-20T07:41:41.936Z,213.75
2018-07-20T07:42:41.957Z,213.75
2018-07-20T07:43:41.983Z,208.13
2018-07-20T07:45:03.026Z,208.13
2018-07-20T07:45:42.036Z,202.50
2018-07-20T07:46:42.059Z,208.13
2018-07-20T07:47:42.091Z,213.75
2018-07-20T07:48:42.119Z,208.13
2018-07-20T07:49:42.140Z,202.50
2018-07-20T07:51:03.180Z,208.13
2018-07-20T07:51:42.193Z,208.13
2018-07-20T07:52:42.219Z,208.13
2018-07-20T07:53:42.245Z,208.13
2018-07-20T07:54:42.298Z,208.13
2018-07-20T07:55:42.290Z,202.50
2018-07-20T07:57:03.389Z,202.50
2018-07-20T07:57:42.340Z,202.50
2018-07-20T07:58:42.376Z,202.50
2018-07-20T07:59:42.392Z,202.50
2018-07-20T08:00:42.421Z,196.88
2018-07-20T08:01:42.444Z,196.88
2018-07-20T08:03:03.501Z,196.88
2018-07-20T08:03:42.495Z,196.88
2018-07-20T08:04:42.522Z,202.50
2018-07-20T08:05:42.551Z,202.50
2018-07-20T08:06:42.574Z,196.88
2018-07-20T08:07:42.609Z,196.88
2018-07-20T08:09:03.643Z,196.88
2018-07-20T08:09:42.729Z,196.88
2018-07-20T08:10:42.677Z,196.88
2018-07-20T08:11:42.705Z,191.25
2018-07-20T08:12:42.741Z,191.25
2018-07-20T08:13:42.762Z,191.25
2018-07-20T08:15:03.800Z,191.25
2018-07-20T08:15:42.816Z,191.25
2018-07-20T08:16:42.833Z,185.63
2018-07-20T08:17:42.855Z,191.25
2018-07-20T08:18:42.895Z,191.25
2018-07-20T08:19:42.910Z,191.25
2018-07-20T08:21:03.950Z,191.25
2018-07-20T08:21:42.959Z,196.88
2018-07-20T08:22:42.992Z,196.88
2018-07-20T08:23:43.014Z,196.88
2018-07-20T08:24:43.074Z,202.50
2018-07-20T08:25:43.093Z,196.88
2018-07-20T08:27:04.109Z,196.88
2018-07-20T08:27:43.127Z,191.25
2018-07-20T08:28:43.138Z,191.25
2018-07-20T08:29:43.225Z,191.25
2018-07-20T08:30:43.234Z,191.25
2018-07-20T08:31:44.868Z,185.63
2018-07-20T08:33:04.273Z,185.63
2018-07-20T08:33:43.277Z,185.63
2018-07-20T08:34:43.330Z,174.38
2018-07-20T08:35:43.368Z,174.38
2018-07-20T08:36:44.333Z,174.38
2018-07-20T08:37:43.402Z,174.38
2018-07-20T08:39:04.450Z,168.75
2018-07-20T08:39:43.425Z,168.75
2018-07-20T08:40:43.489Z,174.38
2018-07-20T08:41:43.511Z,168.75
2018-07-20T08:42:43.546Z,163.13
2018-07-20T08:43:43.550Z,163.13
2018-07-20T08:45:04.617Z,168.75
2018-07-20T08:45:43.608Z,168.75
2018-07-20T08:46:43.646Z,168.75
2018-07-20T08:47:44.367Z,168.75
2018-07-20T08:48:43.679Z,168.75
2018-07-20T08:49:43.694Z,168.75
2018-07-20T08:51:04.767Z,174.38
2018-07-20T08:51:43.787Z,174.38
2018-07-20T08:52:43.796Z,174.38
2018-07-20T08:53:43.812Z,174.38
2018-07-20T08:54:43.817Z,174.38
2018-07-20T08:55:43.881Z,174.38
2018-07-20T08:57:05.840Z,168.75
2018-07-20T08:57:43.903Z,168.75
2018-07-20T08:58:43.960Z,168.75
2018-07-20T08:59:43.958Z,168.75
2018-07-20T09:00:43.973Z,168.75
2018-07-20T09:01:44.030Z,174.38
2018-07-20T09:03:05.074Z,174.38
2018-07-20T09:03:44.853Z,174.38
2018-07-20T09:04:44.099Z,174.38
2018-07-20T09:05:44.107Z,174.38
2018-07-20T09:06:44.180Z,174.38
2018-07-20T09:07:44.203Z,168.75
2018-07-20T09:09:05.227Z,168.75
2018-07-20T09:09:44.215Z,168.75
2018-07-20T09:10:44.242Z,163.13
2018-07-20T09:11:44.306Z,163.13
2018-07-20T09:12:44.295Z,163.13
2018-07-20T09:13:44.487Z,163.13
2018-07-20T09:15:05.359Z,157.50
2018-07-20T09:15:44.366Z,157.50
2018-07-20T09:16:44.392Z,163.13
2018-07-20T09:17:44.418Z,163.13
2018-07-20T09:18:44.446Z,163.13
2018-07-20T09:19:44.471Z,163.13
2018-07-20T09:21:05.609Z,163.13
2018-07-20T09:21:44.524Z,163.13
2018-07-20T09:22:44.551Z,163.13
2018-07-20T09:23:44.573Z,168.75
2018-07-20T09:24:44.603Z,163.13
2018-07-20T09:25:44.624Z,163.13
2018-07-20T09:27:05.667Z,163.13
2018-07-20T09:27:44.685Z,163.13
2018-07-20T09:28:44.709Z,157.50
2018-07-20T09:29:44.789Z,163.13
2018-07-20T09:30:44.757Z,157.50
2018-07-20T09:31:44.781Z,163.13
2018-07-20T09:33:05.827Z,163.13
2018-07-20T09:33:44.837Z,163.13
2018-07-20T09:34:44.860Z,157.50
2018-07-20T09:35:44.892Z,151.88
2018-07-20T09:36:44.914Z,151.88
2018-07-20T09:37:44.940Z,146.25
2018-07-20T09:39:06.016Z,146.25
2018-07-20T09:39:45.032Z,140.63
2018-07-20T09:40:45.874Z,140.63
2018-07-20T09:41:45.062Z,140.63
2018-07-20T09:42:45.129Z,140.63
2018-07-20T09:43:45.131Z,135.00
2018-07-20T09:45:06.862Z,135.00
2018-07-20T09:45:45.176Z,135.00
2018-07-20T09:46:45.193Z,135.00
2018-07-20T09:47:45.203Z,135.00
2018-07-20T09:48:45.224Z,129.38
2018-07-20T09:49:45.281Z,129.38
2018-07-20T09:51:06.321Z,129.38
2018-07-20T09:51:45.335Z,129.38
2018-07-20T09:52:45.343Z,129.38
2018-07-20T09:53:45.357Z,129.38
2018-07-20T09:54:45.386Z,123.75
2018-07-20T09:55:45.433Z,123.75
2018-07-20T09:57:06.460Z,123.75
2018-07-20T09:57:45.469Z,123.75
2018-07-20T09:58:45.492Z,123.75
2018-07-20T09:59:45.525Z,123.75
2018-07-20T10:00:45.536Z,123.75
2018-07-20T10:01:45.573Z,123.75
2018-07-20T10:03:06.611Z,118.13
2018-07-20T10:03:45.620Z,118.13
2018-07-20T10:04:45.645Z,118.13
2018-07-20T10:05:45.668Z,118.13
2018-07-20T10:06:45.697Z,118.13
2018-07-20T10:07:45.717Z,118.13
2018-07-20T10:09:06.761Z,112.50
2018-07-20T10:09:45.769Z,112.50
2018-07-20T10:10:45.796Z,112.50
2018-07-20T10:11:45.862Z,112.50
2018-07-20T10:12:46.484Z,112.50
2018-07-20T10:13:45.898Z,112.50
2018-07-20T10:15:06.946Z,112.50
2018-07-20T10:15:45.927Z,112.50
2018-07-20T10:16:45.954Z,112.50
2018-07-20T10:17:46.006Z,112.50
2018-07-20T10:18:46.038Z,112.50
2018-07-20T10:19:46.038Z,106.88
2018-07-20T10:21:07.078Z,106.88
2018-07-20T10:21:46.089Z,106.88
2018-07-20T10:22:46.139Z,106.88
2018-07-20T10:23:46.890Z,106.88
2018-07-20T10:24:46.174Z,106.88
2018-07-20T10:25:46.241Z,106.88
2018-07-20T10:27:07.263Z,106.88
2018-07-20T10:27:46.277Z,106.88
2018-07-20T10:28:48.859Z,101.25
2018-07-20T10:29:46.315Z,101.25
2018-07-20T10:30:46.375Z,101.25
2018-07-20T10:31:46.336Z,101.25
2018-07-20T10:33:07.914Z,101.25
2018-07-20T10:33:46.418Z,101.25
2018-07-20T10:34:46.416Z,101.25
2018-07-20T10:35:46.444Z,101.25
2018-07-20T10:36:46.468Z,101.25
2018-07-20T10:37:46.495Z,101.25
2018-07-20T10:39:07.540Z,101.25
2018-07-20T10:39:46.545Z,101.25
2018-07-20T10:40:46.606Z,101.25
2018-07-20T10:41:46.607Z,95.63
2018-07-20T10:42:46.624Z,95.63
2018-07-20T10:43:46.650Z,95.63
2018-07-20T10:45:07.692Z,95.63
2018-07-20T10:45:46.703Z,95.63
2018-07-20T10:46:46.727Z,95.63
2018-07-20T10:47:46.756Z,95.63
2018-07-20T10:48:46.776Z,95.63
2018-07-20T10:49:46.801Z,95.63
2018-07-20T10:51:07.846Z,95.63
2018-07-20T10:51:46.856Z,95.63
2018-07-20T10:52:46.879Z,95.63
2018-07-20T10:53:46.906Z,95.63
2018-07-20T10:54:46.932Z,95.63
2018-07-20T10:55:47.919Z,95.63
2018-07-20T10:57:08.000Z,95.63
2018-07-20T10:57:47.013Z,95.63
2018-07-20T10:58:47.034Z,95.63
2018-07-20T10:59:47.057Z,95.63
2018-07-20T11:00:47.085Z,95.63
2018-07-20T11:01:47.163Z,95.63
2018-07-20T11:03:08.153Z,95.63
2018-07-20T11:03:47.162Z,95.63
2018-07-20T11:04:47.189Z,95.63
2018-07-20T11:05:47.218Z,95.63
2018-07-20T11:06:47.244Z,95.63
2018-07-20T11:07:47.273Z,95.63
2018-07-20T11:09:08.304Z,95.63
2018-07-20T11:09:47.315Z,90.00
2018-07-20T11:10:47.339Z,90.00
2018-07-20T11:11:47.374Z,90.00
2018-07-20T11:12:47.393Z,90.00
2018-07-20T11:13:47.441Z,90.00
2018-07-20T11:15:08.470Z,84.38
2018-07-20T11:15:47.470Z,90.00
2018-07-20T11:16:47.503Z,90.00
2018-07-20T11:17:47.523Z,90.00
2018-07-20T11:18:47.548Z,90.00
2018-07-20T11:19:47.571Z,90.00
2018-07-20T11:21:08.615Z,90.00
2018-07-20T11:21:47.625Z,90.00
2018-07-20T11:22:47.650Z,95.63
2018-07-20T11:23:47.676Z,95.63
2018-07-20T11:24:47.703Z,95.63
2018-07-20T11:25:47.729Z,95.63
2018-07-20T11:27:08.770Z,95.63
2018-07-20T11:27:47.800Z,95.63
2018-07-20T11:28:47.805Z,95.63
2018-07-20T11:29:47.829Z,95.63
2018-07-20T11:30:47.858Z,95.63
2018-07-20T11:31:47.881Z,95.63
2018-07-20T11:33:08.922Z,95.63
2018-07-20T11:33:47.930Z,95.63
2018-07-20T11:34:47.967Z,95.63
2018-07-20T11:35:47.991Z,95.63
2018-07-20T11:36:48.022Z,101.25
2018-07-20T11:37:48.045Z,95.63
2018-07-20T11:39:09.077Z,95.63
2018-07-20T11:39:48.084Z,95.63
2018-07-20T11:40:48.113Z,95.63
2018-07-20T11:41:48.186Z,95.63
2018-07-20T11:42:48.161Z,95.63
2018-07-20T11:43:48.190Z,95.63
2018-07-20T11:45:09.233Z,95.63
2018-07-20T11:45:48.241Z,95.63
2018-07-20T11:46:48.273Z,95.63
2018-07-20T11:47:48.297Z,95.63
2018-07-20T11:48:48.315Z,95.63
2018-07-20T11:49:48.345Z,95.63
2018-07-20T11:51:09.390Z,101.25
2018-07-20T11:51:48.394Z,101.25
2018-07-20T11:52:48.420Z,101.25
2018-07-20T11:53:48.448Z,101.25
2018-07-20T11:54:48.473Z,95.63
2018-07-20T11:55:48.497Z,95.63
2018-07-20T11:57:09.538Z,95.63
2018-07-20T11:57:48.562Z,95.63
2018-07-20T11:58:48.636Z,95.63
2018-07-20T11:59:48.600Z,95.63
2018-07-20T12:00:48.628Z,95.63
2018-07-20T12:01:48.664Z,95.63
2018-07-20T12:03:09.700Z,95.63
2018-07-20T12:03:48.708Z,95.63
2018-07-20T12:04:48.767Z,90.00
2018-07-20T12:05:48.761Z,90.00
2018-07-20T12:06:48.797Z,90.00
2018-07-20T12:07:48.808Z,90.00
2018-07-20T12:09:09.853Z,90.00
2018-07-20T12:09:48.864Z,90.00
2018-07-20T12:10:48.892Z,84.38
2018-07-20T12:11:48.910Z,90.00
2018-07-20T12:12:48.946Z,90.00
2018-07-20T12:13:48.963Z,90.00
2018-07-20T12:15:10.010Z,90.00
2018-07-20T12:15:49.015Z,95.63
2018-07-20T12:16:49.045Z,95.63
2018-07-20T12:17:49.065Z,90.00
2018-07-20T12:18:49.108Z,95.63
2018-07-20T12:19:49.119Z,95.63
2018-07-20T12:21:10.182Z,95.63
2018-07-20T12:21:49.182Z,101.25
2018-07-20T12:22:49.227Z,101.25
2018-07-20T12:23:49.224Z,101.25
2018-07-20T12:24:49.251Z,106.88
2018-07-20T12:25:49.285Z,106.88
2018-07-20T12:27:10.319Z,106.88
2018-07-20T12:27:49.328Z,106.88
2018-07-20T12:28:49.357Z,106.88
2018-07-20T12:29:49.378Z,106.88
2018-07-20T12:30:49.407Z,106.88
2018-07-20T12:31:49.433Z,106.88
2018-07-20T12:33:10.480Z,106.88
2018-07-20T12:33:49.483Z,106.88
2018-07-20T12:34:49.511Z,106.88
2018-07-20T12:35:49.538Z,112.50
2018-07-20T12:36:49.566Z,112.50
2018-07-20T12:37:49.593Z,106.88
2018-07-20T12:39:10.664Z,106.88
2018-07-20T12:39:49.645Z,106.88
2018-07-20T12:40:49.680Z,106.88
2018-07-20T12:41:49.696Z,106.88
2018-07-20T12:42:49.718Z,101.25
2018-07-20T12:43:49.745Z,101.25
2018-07-20T12:45:10.799Z,101.25
2018-07-20T12:45:49.800Z,101.25
2018-07-20T12:46:49.830Z,95.63
2018-07-20T12:47:49.849Z,95.63
2018-07-20T12:48:49.878Z,101.25
2018-07-20T12:49:49.903Z,101.25
2018-07-20T12:51:10.948Z,95.63
2018-07-20T12:51:49.955Z,95.63